Time;durP1;ratioP1;P1;durP2;ratioP2;P2;SDS_P1;SDS_P2;PMS_P1;PMS_P2;Temp;Humidity;BMP_temperature;BMP_pressure;BME280_temperature;BME280_humidity;BME280_pressure;Samples;Min_cycle;Max_cycle;Signal;HPM_P1;HPM_P2
2023/08/13 00:00:42;;;;;;;4.30;2.80;;;14.70;99.90;;;;;;5024323;28;20509;-86
2023/08/13 00:03:07;;;;;;;4.28;3.17;;;14.60;99.90;;;;;;5022579;28;20093;-87
2023/08/13 00:05:33;;;;;;;3.22;2.92;;;14.60;99.90;;;;;;5022644;28;20032;-86
2023/08/13 00:07:58;;;;;;;6.25;3.33;;;14.60;99.90;;;;;;5028816;28;20025;-86
2023/08/13 00:10:26;;;;;;;3.40;3.10;;;14.60;99.90;;;;;;5018468;28;20029;-86
2023/08/13 00:12:52;;;;;;;4.57;3.42;;;14.60;99.90;;;;;;5013844;28;20149;-86
2023/08/13 00:15:18;;;;;;;5.45;3.30;;;14.60;99.90;;;;;;5022009;28;20061;-86
2023/08/13 00:17:43;;;;;;;5.93;3.22;;;14.60;99.90;;;;;;5024404;28;20029;-86
2023/08/13 00:20:10;;;;;;;5.75;3.10;;;14.50;99.90;;;;;;5020621;28;20026;-86
2023/08/13 00:22:35;;;;;;;3.70;3.05;;;14.50;99.90;;;;;;5022232;28;20050;-85
2023/08/13 00:25:01;;;;;;;4.00;2.47;;;14.50;99.90;;;;;;5024759;28;20026;-86
2023/08/13 00:27:26;;;;;;;5.18;3.35;;;14.50;99.90;;;;;;5024211;28;20037;-86
2023/08/13 00:29:52;;;;;;;4.07;3.17;;;14.50;99.90;;;;;;5025510;28;20081;-85
2023/08/13 00:32:17;;;;;;;5.50;2.67;;;14.50;99.90;;;;;;5024867;28;20527;-86
2023/08/13 00:34:43;;;;;;;5.40;2.85;;;14.40;99.90;;;;;;5030133;28;20030;-86
2023/08/13 00:37:08;;;;;;;6.82;3.33;;;14.40;99.90;;;;;;5025178;28;20112;-86
2023/08/13 00:39:34;;;;;;;5.25;3.60;;;14.40;99.90;;;;;;5022816;28;20044;-86
2023/08/13 00:41:59;;;;;;;4.45;3.35;;;14.40;99.90;;;;;;5025172;28;20076;-86
2023/08/13 00:44:25;;;;;;;4.80;3.45;;;14.40;99.90;;;;;;5023356;28;20021;-86
2023/08/13 00:46:51;;;;;;;6.35;3.28;;;14.40;99.90;;;;;;5025376;28;20024;-86
2023/08/13 00:49:16;;;;;;;4.45;2.60;;;14.30;99.90;;;;;;5018857;28;20072;-86
2023/08/13 00:51:43;;;;;;;4.68;3.10;;;14.30;99.90;;;;;;5024155;28;20029;-86
2023/08/13 00:54:09;;;;;;;3.50;2.95;;;14.30;99.90;;;;;;5024077;28;20029;-85
2023/08/13 00:56:35;;;;;;;3.50;2.50;;;14.30;99.90;;;;;;5022388;28;20607;-86
2023/08/13 00:59:01;;;;;;;3.78;2.60;;;14.30;99.90;;;;;;5019266;28;20034;-86
2023/08/13 01:01:26;;;;;;;5.10;2.70;;;14.30;99.90;;;;;;5022912;28;20038;-85
2023/08/13 01:03:52;;;;;;;4.90;2.75;;;14.30;99.90;;;;;;5023716;28;20060;-86
2023/08/13 01:06:23;;;;;;;4.15;2.00;;;14.20;99.90;;;;;;5027408;28;20018;-85
2023/08/13 01:09:19;;;;;;;4.93;2.60;;;14.30;99.90;;;;;;5024790;28;20389;-85
2023/08/13 01:11:44;;;;;;;5.50;3.30;;;14.30;99.90;;;;;;5021498;28;20030;-86
2023/08/13 01:14:39;;;;;;;4.88;3.33;;;14.20;99.90;;;;;;5025038;28;20121;-86
2023/08/13 01:17:06;;;;;;;5.70;2.97;;;14.20;99.90;;;;;;5013946;28;20025;-86
2023/08/13 01:19:32;;;;;;;4.95;2.72;;;14.20;99.90;;;;;;5021028;28;20026;-85
2023/08/13 01:21:57;;;;;;;3.45;2.55;;;14.20;99.90;;;;;;5019122;28;20511;-86
2023/08/13 01:24:23;;;;;;;3.47;2.53;;;14.20;99.90;;;;;;5022999;28;20109;-86
2023/08/13 01:27:07;;;;;;;6.65;2.78;;;14.20;99.90;;;;;;5016880;28;20048;-85
2023/08/13 01:29:50;;;;;;;5.43;3.05;;;14.20;99.90;;;;;;5023629;28;20014;-85
2023/08/13 01:32:18;;;;;;;3.72;2.53;;;14.10;99.90;;;;;;5026991;28;20057;-86
2023/08/13 01:34:45;;;;;;;3.90;2.67;;;14.10;99.90;;;;;;5019293;28;20045;-85
2023/08/13 01:37:13;;;;;;;5.30;2.72;;;14.10;99.90;;;;;;5023558;28;20029;-85
2023/08/13 01:39:39;;;;;;;6.95;2.85;;;14.10;99.90;;;;;;5023586;28;20021;-86
2023/08/13 01:42:06;;;;;;;4.55;2.83;;;14.10;99.90;;;;;;5025591;28;20022;-85
2023/08/13 01:44:32;;;;;;;5.18;3.17;;;14.10;99.90;;;;;;5021321;28;20388;-86
2023/08/13 01:46:57;;;;;;;5.60;2.72;;;14.00;99.90;;;;;;5024469;28;20021;-86
2023/08/13 01:49:23;;;;;;;3.13;2.67;;;14.00;99.90;;;;;;5022350;28;20035;-85
2023/08/13 01:51:49;;;;;;;4.85;3.22;;;14.00;99.90;;;;;;5025088;28;20022;-85
2023/08/13 01:54:14;;;;;;;5.47;3.03;;;14.00;99.90;;;;;;5022322;28;20025;-84
2023/08/13 01:56:40;;;;;;;3.70;2.53;;;14.00;99.90;;;;;;5022363;28;20037;-85
2023/08/13 01:59:05;;;;;;;5.90;3.75;;;14.00;99.90;;;;;;5023242;28;20034;-85
2023/08/13 02:01:31;;;;;;;3.88;2.50;;;14.00;99.90;;;;;;5022513;28;20025;-85
2023/08/13 02:03:56;;;;;;;3.65;3.15;;;14.00;99.90;;;;;;5023923;28;20167;-85
2023/08/13 02:06:22;;;;;;;3.88;2.40;;;14.00;99.90;;;;;;5023483;28;20088;-85
2023/08/13 02:08:48;;;;;;;2.80;2.10;;;14.00;99.90;;;;;;5023990;28;20032;-85
2023/08/13 02:11:13;;;;;;;4.70;3.00;;;14.00;99.90;;;;;;5022923;28;20026;-85
2023/08/13 02:13:39;;;;;;;4.07;2.60;;;14.00;99.90;;;;;;5023767;28;20109;-85
2023/08/13 02:16:05;;;;;;;2.05;1.85;;;14.10;99.90;;;;;;5023498;28;20060;-85
2023/08/13 02:18:31;;;;;;;5.25;2.55;;;14.10;99.90;;;;;;5022858;28;20026;-85
2023/08/13 02:20:56;;;;;;;10.43;3.13;;;14.10;99.90;;;;;;5023676;28;20021;-85
2023/08/13 02:23:22;;;;;;;5.28;3.78;;;14.20;99.90;;;;;;5021618;28;20045;-85
2023/08/13 02:25:49;;;;;;;6.43;3.28;;;14.20;99.90;;;;;;5024591;28;20026;-84
2023/08/13 02:28:15;;;;;;;4.80;2.38;;;14.20;99.90;;;;;;5024247;28;20615;-85
2023/08/13 02:30:41;;;;;;;3.88;3.53;;;14.20;99.90;;;;;;5021866;28;20041;-85
2023/08/13 02:33:06;;;;;;;3.72;2.72;;;14.20;99.90;;;;;;5023528;28;20033;-85
2023/08/13 02:35:32;;;;;;;5.78;2.67;;;14.20;99.90;;;;;;5020013;28;20050;-85
2023/08/13 02:37:57;;;;;;;3.00;2.63;;;14.30;99.90;;;;;;5016096;28;20026;-85
2023/08/13 02:40:23;;;;;;;4.43;2.53;;;14.30;99.90;;;;;;5021374;28;20358;-85
2023/08/13 02:42:48;;;;;;;4.70;3.10;;;14.30;99.90;;;;;;5021446;28;20032;-85
2023/08/13 02:45:14;;;;;;;4.40;3.15;;;14.30;99.90;;;;;;5020233;28;20076;-85
2023/08/13 02:47:39;;;;;;;3.78;2.90;;;14.30;99.90;;;;;;5021644;28;20243;-85
2023/08/13 02:50:06;;;;;;;4.47;3.45;;;14.30;99.90;;;;;;5019944;28;20052;-85
2023/08/13 02:52:32;;;;;;;3.40;2.45;;;14.30;99.90;;;;;;5022262;28;20097;-85
2023/08/13 02:54:57;;;;;;;4.25;2.65;;;14.30;99.90;;;;;;5021434;28;20108;-85
2023/08/13 02:57:23;;;;;;;7.78;3.30;;;14.30;99.90;;;;;;5020801;28;20500;-84
2023/08/13 02:59:48;;;;;;;5.20;3.30;;;14.30;99.90;;;;;;5019203;28;20051;-85
2023/08/13 03:02:16;;;;;;;4.05;2.38;;;14.30;99.90;;;;;;5023907;28;20033;-85
2023/08/13 03:04:42;;;;;;;4.72;3.92;;;14.30;99.90;;;;;;5023512;28;20109;-85
2023/08/13 03:07:08;;;;;;;5.18;2.85;;;14.30;99.90;;;;;;5023077;28;20045;-85
2023/08/13 03:09:33;;;;;;;5.00;2.30;;;14.20;99.90;;;;;;5019639;28;20103;-85
2023/08/13 03:11:59;;;;;;;5.00;2.72;;;14.20;99.90;;;;;;5022098;28;20028;-85
2023/08/13 03:14:24;;;;;;;4.38;2.83;;;14.20;99.90;;;;;;5021246;28;20044;-86
2023/08/13 03:16:50;;;;;;;4.10;2.60;;;14.20;99.90;;;;;;5027657;28;20022;-85
2023/08/13 03:19:15;;;;;;;7.10;3.00;;;14.20;99.90;;;;;;5023012;28;20041;-85
2023/08/13 03:21:41;;;;;;;3.45;2.80;;;14.20;99.90;;;;;;5019869;28;20029;-84
2023/08/13 03:24:06;;;;;;;4.50;2.80;;;14.20;99.90;;;;;;5019454;28;20029;-85
2023/08/13 03:26:32;;;;;;;4.68;2.40;;;14.10;99.90;;;;;;5028978;28;20022;-85
2023/08/13 03:28:58;;;;;;;4.45;2.70;;;14.10;99.90;;;;;;5032650;28;20039;-85
2023/08/13 03:31:23;;;;;;;3.47;2.38;;;14.10;99.90;;;;;;5027008;28;20064;-85
2023/08/13 03:33:49;;;;;;;3.10;2.22;;;14.10;99.90;;;;;;5020662;28;20393;-85
2023/08/13 03:36:14;;;;;;;4.28;2.47;;;14.00;99.90;;;;;;5024838;28;20054;-85
2023/08/13 03:38:40;;;;;;;4.28;2.30;;;14.10;99.90;;;;;;5021724;28;20030;-85
2023/08/13 03:41:05;;;;;;;10.25;3.30;;;14.00;99.90;;;;;;5024185;28;20036;-85
2023/08/13 03:43:31;;;;;;;4.85;3.15;;;14.00;99.90;;;;;;5022537;28;20029;-85
2023/08/13 03:45:56;;;;;;;4.30;2.70;;;14.00;99.90;;;;;;5023011;28;20473;-85
2023/08/13 03:48:22;;;;;;;6.88;2.83;;;14.00;99.90;;;;;;5023381;28;20480;-84
2023/08/13 03:50:48;;;;;;;3.45;2.45;;;13.90;99.90;;;;;;5020495;28;20073;-85
2023/08/13 03:53:14;;;;;;;3.05;2.17;;;13.90;99.90;;;;;;5017985;28;20144;-85
2023/08/13 03:55:39;;;;;;;3.58;2.45;;;13.90;99.90;;;;;;5022718;28;20056;-85
2023/08/13 03:58:05;;;;;;;5.93;2.97;;;13.90;99.90;;;;;;5024947;28;20123;-85
2023/08/13 04:00:31;;;;;;;5.55;2.67;;;13.90;99.90;;;;;;5017678;28;20030;-86
2023/08/13 04:02:57;;;;;;;4.93;2.60;;;13.90;99.90;;;;;;5023550;28;20025;-86
2023/08/13 04:05:23;;;;;;;3.40;2.05;;;13.90;99.90;;;;;;5022284;28;20193;-85
2023/08/13 04:07:48;;;;;;;8.35;2.60;;;13.90;99.90;;;;;;5018254;28;20511;-85
2023/08/13 04:10:14;;;;;;;4.47;2.53;;;13.80;99.90;;;;;;5021591;28;20026;-85
2023/08/13 04:12:39;;;;;;;4.57;2.55;;;13.80;99.90;;;;;;5020587;28;20040;-85
2023/08/13 04:15:06;;;;;;;4.65;2.35;;;13.80;99.90;;;;;;5023218;28;20465;-85
2023/08/13 04:17:31;;;;;;;6.78;2.80;;;13.80;99.90;;;;;;5022041;28;20108;-86
2023/08/13 04:19:57;;;;;;;3.95;2.78;;;13.80;99.90;;;;;;5021699;28;20458;-85
2023/08/13 04:22:23;;;;;;;3.67;2.60;;;13.80;99.90;;;;;;5025493;28;20464;-85
2023/08/13 04:24:50;;;;;;;4.22;2.50;;;13.80;99.90;;;;;;5020929;28;20397;-85
2023/08/13 04:27:17;;;;;;;4.75;2.35;;;13.80;99.90;;;;;;5022593;28;20049;-85
2023/08/13 04:29:42;;;;;;;6.20;2.83;;;13.90;99.90;;;;;;5026428;28;20029;-85
2023/08/13 04:32:08;;;;;;;9.55;3.10;;;13.90;99.90;;;;;;5027022;28;20037;-85
2023/08/13 04:34:33;;;;;;;5.30;2.90;;;13.80;99.90;;;;;;5017288;28;20115;-86
2023/08/13 04:36:59;;;;;;;5.85;2.60;;;13.80;99.90;;;;;;5026832;28;20084;-85
2023/08/13 04:39:24;;;;;;;6.45;2.42;;;13.80;99.90;;;;;;5022317;28;20092;-84
2023/08/13 04:41:50;;;;;;;4.82;2.65;;;13.90;99.90;;;;;;5030515;28;20026;-84
2023/08/13 04:44:15;;;;;;;3.03;2.72;;;13.80;99.90;;;;;;5023339;28;20098;-85
2023/08/13 04:46:41;;;;;;;4.20;2.38;;;13.90;99.90;;;;;;5023826;28;20025;-85
2023/08/13 04:49:06;;;;;;;4.05;2.33;;;13.90;99.90;;;;;;5023711;28;20079;-85
2023/08/13 04:51:32;;;;;;;4.03;2.70;;;13.90;99.90;;;;;;5024959;28;20507;-85
2023/08/13 04:53:58;;;;;;;4.07;2.53;;;13.90;99.90;;;;;;5024309;28;20049;-85
2023/08/13 04:56:23;;;;;;;3.97;2.40;;;14.00;99.90;;;;;;5018312;28;20068;-85
2023/08/13 04:58:49;;;;;;;5.95;2.80;;;14.00;99.90;;;;;;5016355;28;20021;-85
2023/08/13 05:01:14;;;;;;;4.05;2.90;;;14.10;99.90;;;;;;5022866;28;20041;-84
2023/08/13 05:03:40;;;;;;;8.95;3.33;;;14.10;99.90;;;;;;5030308;28;20022;-86
2023/08/13 05:06:06;;;;;;;5.32;2.95;;;14.10;99.90;;;;;;5022219;28;20108;-85
2023/08/13 05:08:31;;;;;;;4.82;3.15;;;14.20;99.90;;;;;;5024696;28;20215;-85
2023/08/13 05:10:57;;;;;;;6.30;2.80;;;14.20;99.90;;;;;;5026975;28;20055;-86
2023/08/13 05:13:22;;;;;;;8.88;3.58;;;14.20;99.90;;;;;;5015469;28;20026;-85
2023/08/13 05:15:48;;;;;;;5.32;3.38;;;14.30;99.90;;;;;;5028349;28;20022;-85
2023/08/13 05:18:13;;;;;;;4.10;2.75;;;14.30;99.90;;;;;;5021852;28;20037;-85
2023/08/13 05:20:39;;;;;;;3.67;3.15;;;14.30;99.90;;;;;;5030117;28;20095;-85
2023/08/13 05:23:04;;;;;;;8.75;3.17;;;14.40;99.90;;;;;;5021724;28;20064;-85
2023/08/13 05:25:30;;;;;;;4.07;2.65;;;14.40;99.90;;;;;;5014650;28;20054;-85
2023/08/13 05:27:55;;;;;;;11.45;3.42;;;14.50;99.90;;;;;;5028343;28;20045;-84
2023/08/13 05:30:21;;;;;;;4.75;3.67;;;14.50;99.90;;;;;;5020385;28;20124;-86
2023/08/13 05:32:47;;;;;;;7.10;3.97;;;14.60;99.90;;;;;;5028081;28;20469;-86
2023/08/13 05:35:13;;;;;;;4.95;3.38;;;14.60;99.90;;;;;;5012018;28;20385;-86
2023/08/13 05:37:38;;;;;;;5.68;3.40;;;14.70;99.90;;;;;;5023949;28;20446;-86
2023/08/13 05:40:05;;;;;;;5.10;3.20;;;14.70;99.90;;;;;;5025673;28;20025;-86
2023/08/13 05:42:30;;;;;;;4.70;2.92;;;14.70;99.90;;;;;;5019895;28;20541;-86
2023/08/13 05:44:56;;;;;;;6.55;3.13;;;14.80;99.90;;;;;;5023468;28;20141;-84
2023/08/13 05:47:22;;;;;;;7.30;3.50;;;14.90;99.90;;;;;;5023562;28;20033;-86
2023/08/13 05:49:47;;;;;;;4.70;3.28;;;14.90;99.90;;;;;;5023734;28;20571;-86
2023/08/13 05:52:13;;;;;;;6.63;3.33;;;15.00;99.90;;;;;;5024669;28;20041;-86
2023/08/13 05:54:38;;;;;;;7.70;3.28;;;15.00;99.90;;;;;;5021384;28;20079;-86
2023/08/13 05:57:04;;;;;;;7.85;4.03;;;15.10;99.90;;;;;;5022713;28;20036;-87
2023/08/13 05:59:29;;;;;;;4.20;3.42;;;15.10;99.90;;;;;;5019335;28;20068;-86
2023/08/13 06:01:55;;;;;;;6.32;2.90;;;15.20;99.90;;;;;;5022978;28;20029;-86
2023/08/13 06:04:21;;;;;;;7.80;3.10;;;15.30;99.90;;;;;;5020557;28;20028;-87
2023/08/13 06:06:46;;;;;;;7.57;4.22;;;15.30;99.90;;;;;;5022819;28;20456;-87
2023/08/13 06:09:12;;;;;;;6.40;3.33;;;15.40;99.90;;;;;;5023962;28;20029;-87
2023/08/13 06:11:37;;;;;;;7.63;4.57;;;15.40;99.90;;;;;;5019675;28;20029;-87
2023/08/13 06:14:03;;;;;;;9.57;5.72;;;15.50;99.90;;;;;;5022743;28;20032;-87
2023/08/13 06:16:29;;;;;;;11.05;5.72;;;15.60;99.90;;;;;;5019434;28;20060;-87
2023/08/13 06:18:54;;;;;;;7.28;4.82;;;15.60;99.90;;;;;;5020249;28;20034;-87
2023/08/13 06:21:20;;;;;;;12.45;4.25;;;15.60;99.90;;;;;;5020078;28;20481;-87
2023/08/13 06:23:46;;;;;;;7.18;4.13;;;15.60;99.90;;;;;;5022533;28;20500;-87
2023/08/13 06:26:11;;;;;;;5.82;3.60;;;15.70;99.90;;;;;;5022614;28;20103;-87
2023/08/13 06:28:38;;;;;;;7.35;3.55;;;15.70;99.90;;;;;;5020734;28;20090;-88
2023/08/13 06:31:04;;;;;;;7.45;3.70;;;15.80;99.90;;;;;;5016982;28;20038;-87
2023/08/13 06:33:30;;;;;;;5.82;3.90;;;15.80;99.90;;;;;;5019779;28;20720;-87
2023/08/13 06:35:56;;;;;;;4.28;3.50;;;15.80;99.90;;;;;;5021396;28;20115;-88
2023/08/13 06:38:23;;;;;;;8.50;4.50;;;15.90;99.90;;;;;;5022487;28;20025;-87
2023/08/13 06:40:49;;;;;;;5.38;3.55;;;15.90;99.90;;;;;;5013569;28;20116;-88
2023/08/13 06:43:15;;;;;;;7.70;3.88;;;16.00;99.90;;;;;;5018170;28;20057;-88
2023/08/13 06:45:40;;;;;;;7.93;4.40;;;16.10;99.90;;;;;;5016720;28;20441;-88
2023/08/13 06:48:06;;;;;;;7.32;4.00;;;16.20;99.90;;;;;;5017161;28;20022;-87
2023/08/13 06:50:33;;;;;;;5.57;3.88;;;16.40;99.90;;;;;;5013787;28;20053;-87
2023/08/13 06:52:58;;;;;;;7.13;3.92;;;16.40;99.90;;;;;;5011314;28;20509;-87
2023/08/13 06:55:24;;;;;;;6.80;4.70;;;16.60;99.90;;;;;;5019994;28;20061;-88
2023/08/13 06:57:51;;;;;;;5.53;4.07;;;16.70;99.90;;;;;;5028800;28;20030;-89
2023/08/13 07:00:19;;;;;;;7.50;3.35;;;16.80;99.90;;;;;;5010637;28;20033;-88
2023/08/13 07:02:45;;;;;;;6.20;3.28;;;16.90;99.90;;;;;;5011605;28;20022;-88
2023/08/13 07:05:12;;;;;;;9.82;4.00;;;17.10;99.90;;;;;;5011573;28;20046;-89
2023/08/13 07:07:38;;;;;;;6.65;3.35;;;17.20;99.90;;;;;;5012010;28;20144;-89
2023/08/13 07:10:04;;;;;;;5.50;3.00;;;17.40;99.90;;;;;;5011275;28;20056;-87
2023/08/13 07:12:30;;;;;;;8.18;3.30;;;17.50;99.90;;;;;;5011159;28;20140;-88
2023/08/13 07:14:56;;;;;;;8.30;5.22;;;17.70;99.90;;;;;;5011153;28;20022;-89
2023/08/13 07:17:22;;;;;;;9.98;3.20;;;17.80;99.90;;;;;;5011056;28;20477;-89
2023/08/13 07:19:50;;;;;;;6.93;3.33;;;18.00;99.90;;;;;;5012523;28;20068;-88
2023/08/13 07:22:16;;;;;;;5.70;2.75;;;18.10;99.90;;;;;;5012160;28;20032;-90
2023/08/13 07:24:42;;;;;;;5.00;2.53;;;18.20;99.90;;;;;;5029838;28;20018;-88
2023/08/13 07:27:10;;;;;;;6.15;3.33;;;18.30;99.90;;;;;;5031218;28;20025;-88
2023/08/13 07:29:36;;;;;;;4.53;2.42;;;18.50;99.90;;;;;;5031610;28;20032;-88
2023/08/13 07:32:02;;;;;;;8.45;3.45;;;18.60;99.90;;;;;;5024334;28;20125;-89
2023/08/13 07:34:28;;;;;;;5.65;2.83;;;18.70;99.90;;;;;;5016934;28;20030;-89
2023/08/13 07:36:53;;;;;;;9.43;2.92;;;18.90;99.90;;;;;;5032439;28;20030;-89
2023/08/13 07:39:20;;;;;;;5.55;2.90;;;19.10;99.90;;;;;;5035655;28;20030;-91
2023/08/13 07:41:48;;;;;;;3.63;2.30;;;19.10;99.90;;;;;;5023329;28;20109;-88
2023/08/13 07:44:16;;;;;;;5.93;2.55;;;19.20;99.90;;;;;;5020243;28;20027;-88
2023/08/13 07:46:43;;;;;;;3.55;2.55;;;19.30;99.90;;;;;;5012751;28;20769;-89
2023/08/13 07:49:08;;;;;;;4.95;2.10;;;19.50;99.90;;;;;;5024144;28;20030;-89
2023/08/13 07:51:34;;;;;;;3.13;2.28;;;19.50;99.90;;;;;;5010874;28;20074;-88
2023/08/13 07:54:03;;;;;;;9.30;2.85;;;19.60;99.90;;;;;;5012309;28;20341;-89
2023/08/13 07:56:29;;;;;;;8.23;3.33;;;19.70;99.90;;;;;;4997943;28;20022;-88
2023/08/13 07:58:55;;;;;;;8.55;2.58;;;19.70;99.90;;;;;;5024525;28;20021;-87
2023/08/13 08:01:23;;;;;;;4.60;2.10;;;19.70;99.90;;;;;;5021689;28;20034;-88
2023/08/13 08:03:49;;;;;;;9.20;2.80;;;19.70;99.90;;;;;;5014388;28;20034;-87
2023/08/13 08:06:14;;;;;;;9.27;2.53;;;19.80;99.90;;;;;;5034591;28;20026;-92
2023/08/13 08:08:40;;;;;;;6.68;3.25;;;19.90;99.90;;;;;;5026883;28;20072;-86
2023/08/13 08:11:05;;;;;;;14.38;2.47;;;20.10;99.90;;;;;;5029331;28;20022;-87
2023/08/13 08:13:34;;;;;;;7.50;2.03;;;20.20;99.90;;;;;;5023875;28;20026;-88
2023/08/13 08:16:00;;;;;;;3.65;1.92;;;20.40;99.90;;;;;;5022693;28;20061;-88
2023/08/13 08:18:28;;;;;;;2.72;2.22;;;20.50;99.90;;;;;;5030232;28;20039;-87
2023/08/13 08:20:54;;;;;;;6.78;2.38;;;20.60;99.90;;;;;;5025943;28;20045;-88
2023/08/13 08:23:19;;;;;;;3.97;2.08;;;20.60;99.90;;;;;;5024072;28;20026;-87
2023/08/13 08:25:45;;;;;;;5.90;2.00;;;20.70;99.90;;;;;;5024732;28;20452;-87
2023/08/13 08:28:11;;;;;;;6.13;1.98;;;20.70;99.90;;;;;;5017110;28;20109;-86
2023/08/13 08:30:37;;;;;;;3.85;1.58;;;20.70;99.90;;;;;;5031726;28;20168;-88
2023/08/13 08:33:03;;;;;;;6.75;1.73;;;20.80;99.90;;;;;;5023871;28;20080;-87
2023/08/13 08:35:28;;;;;;;2.15;1.50;;;20.80;99.90;;;;;;5020152;28;20032;-86
2023/08/13 08:37:54;;;;;;;2.45;1.35;;;20.80;99.90;;;;;;5024993;28;20053;-86
2023/08/13 08:40:20;;;;;;;4.90;1.67;;;20.90;99.90;;;;;;5025335;28;20033;-84
2023/08/13 08:42:45;;;;;;;4.00;1.85;;;21.00;99.90;;;;;;5025277;28;20037;-86
2023/08/13 08:45:13;;;;;;;6.63;2.50;;;21.00;99.90;;;;;;5024688;28;20021;-86
2023/08/13 08:47:43;;;;;;;5.20;1.70;;;21.00;99.90;;;;;;5016946;28;20049;-87
2023/08/13 08:50:13;;;;;;;2.42;1.60;;;21.00;99.90;;;;;;5020166;28;20396;-87
2023/08/13 08:52:39;;;;;;;7.43;2.67;;;21.00;99.90;;;;;;5023813;28;20046;-86
2023/08/13 08:55:05;;;;;;;5.13;2.20;;;21.00;99.90;;;;;;5023582;28;20076;-89
2023/08/13 08:57:31;;;;;;;3.65;1.60;;;21.00;99.90;;;;;;5022178;28;20095;-86
2023/08/13 08:59:57;;;;;;;4.32;1.98;;;21.10;99.90;;;;;;5021167;28;20040;-86
2023/08/13 09:02:23;;;;;;;4.63;1.55;;;21.20;99.90;;;;;;5023799;28;20116;-86
2023/08/13 09:04:48;;;;;;;6.70;1.85;;;21.20;99.90;;;;;;5020277;28;20573;-86
2023/08/13 09:07:14;;;;;;;5.45;1.92;;;21.30;99.90;;;;;;5019857;28;20028;-88
2023/08/13 09:09:43;;;;;;;4.53;1.65;;;21.20;99.90;;;;;;5021941;28;20141;-85
2023/08/13 09:12:09;;;;;;;3.35;1.65;;;21.20;99.90;;;;;;5025178;28;20022;-87
2023/08/13 09:14:35;;;;;;;3.03;1.50;;;21.20;99.90;;;;;;5020519;28;20022;-86
2023/08/13 09:17:01;;;;;;;4.40;1.63;;;21.10;99.90;;;;;;5024804;28;20136;-86
2023/08/13 09:19:28;;;;;;;4.35;1.70;;;21.00;99.90;;;;;;5023850;28;20568;-86
2023/08/13 09:22:04;;;;;;;3.25;1.60;;;21.10;99.90;;;;;;5025310;28;20029;-86
2023/08/13 09:24:35;;;;;;;4.97;1.52;;;21.10;99.90;;;;;;5024669;28;20230;-86
2023/08/13 09:27:02;;;;;;;6.45;2.05;;;21.20;99.90;;;;;;5018033;28;20030;-86
2023/08/13 09:29:32;;;;;;;2.92;1.67;;;21.20;99.90;;;;;;5024560;28;20051;-86
2023/08/13 09:32:02;;;;;;;6.20;1.58;;;21.30;99.90;;;;;;5025157;28;20034;-86
2023/08/13 09:34:29;;;;;;;2.70;1.40;;;21.40;99.90;;;;;;5016011;28;20087;-86
2023/08/13 09:36:56;;;;;;;6.28;1.65;;;21.40;99.90;;;;;;5022996;28;20832;-85
2023/08/13 09:39:27;;;;;;;2.92;1.20;;;21.50;99.90;;;;;;5016773;28;20025;-86
2023/08/13 09:41:54;;;;;;;4.85;1.75;;;21.40;99.90;;;;;;5038855;28;20017;-85
2023/08/13 09:44:21;;;;;;;3.00;1.15;;;21.40;99.90;;;;;;5017309;28;20018;-87
2023/08/13 09:47:06;;;;;;;5.63;1.63;;;21.50;99.90;;;;;;5026166;28;20044;-85
2023/08/13 09:49:33;;;;;;;2.63;1.33;;;21.50;99.90;;;;;;5022782;28;20339;-84
2023/08/13 09:52:01;;;;;;;5.38;1.30;;;21.40;99.90;;;;;;5029276;28;20029;-85
2023/08/13 09:54:29;;;;;;;3.40;1.40;;;21.50;99.90;;;;;;5024599;28;20022;-85
2023/08/13 09:57:02;;;;;;;4.22;1.60;;;21.50;99.90;;;;;;5023792;28;20055;-86
2023/08/13 09:59:28;;;;;;;4.55;1.15;;;21.60;99.90;;;;;;5023968;28;20026;-85
2023/08/13 10:01:54;;;;;;;2.47;1.00;;;21.60;99.90;;;;;;5023509;28;20041;-83
2023/08/13 10:04:21;;;;;;;2.22;1.10;;;21.60;99.90;;;;;;5025173;28;20025;-84
2023/08/13 10:06:50;;;;;;;7.05;1.42;;;21.60;99.90;;;;;;5023267;28;20013;-84
2023/08/13 10:09:16;;;;;;;5.57;1.10;;;21.70;99.90;;;;;;5022178;28;20108;-85
2023/08/13 10:11:42;;;;;;;2.40;1.63;;;21.80;99.90;;;;;;5020859;28;20025;-84
2023/08/13 10:14:07;;;;;;;8.60;1.77;;;21.70;99.90;;;;;;5016921;28;20034;-86
2023/08/13 10:16:33;;;;;;;3.83;1.60;;;21.60;99.90;;;;;;5021245;28;20113;-86
2023/08/13 10:19:01;;;;;;;1.33;1.00;;;21.50;99.90;;;;;;5023807;28;20029;-83
2023/08/13 10:21:36;;;;;;;4.05;2.28;;;21.60;99.90;;;;;;5022931;28;20025;-82
2023/08/13 10:24:03;;;;;;;4.97;1.10;;;21.50;99.90;;;;;;5022804;28;20021;-84
2023/08/13 10:26:28;;;;;;;2.33;1.08;;;21.60;99.90;;;;;;5021246;28;20548;-85
2023/08/13 10:28:54;;;;;;;6.07;1.67;;;21.60;99.90;;;;;;5023786;28;20116;-87
2023/08/13 10:31:23;;;;;;;4.80;1.40;;;21.50;99.90;;;;;;5018737;28;20037;-86
2023/08/13 10:34:18;;;;;;;4.93;1.48;;;21.50;99.90;;;;;;5019799;28;20041;-84
2023/08/13 10:36:51;;;;;;;3.85;1.35;;;21.50;99.90;;;;;;5026104;28;20037;-86
2023/08/13 10:39:34;;;;;;;3.00;1.25;;;21.60;99.90;;;;;;5016146;28;20490;-85
2023/08/13 10:42:03;;;;;;;2.15;1.25;;;21.70;99.90;;;;;;5016453;28;20029;-85
2023/08/13 10:44:29;;;;;;;3.13;2.33;;;21.70;99.90;;;;;;5020586;28;20600;-84
2023/08/13 10:46:56;;;;;;;4.15;1.30;;;21.70;99.90;;;;;;5026576;28;20033;-85
2023/08/13 10:49:22;;;;;;;1.73;0.90;;;21.70;99.90;;;;;;5016188;28;20033;-84
2023/08/13 10:51:48;;;;;;;4.93;1.40;;;21.80;99.90;;;;;;5025321;28;20096;-84
2023/08/13 10:54:14;;;;;;;3.28;1.40;;;21.80;99.90;;;;;;5022040;28;20026;-85
2023/08/13 10:56:45;;;;;;;1.15;0.90;;;21.90;99.90;;;;;;5021981;28;20141;-85
2023/08/13 10:59:11;;;;;;;1.08;0.80;;;21.90;99.90;;;;;;5023600;28;20088;-85
2023/08/13 11:02:09;;;;;;;1.80;1.15;;;22.00;99.90;;;;;;5021594;28;20477;-85
2023/08/13 11:04:35;;;;;;;1.73;1.25;;;22.00;99.90;;;;;;5023872;28;20508;-84
2023/08/13 11:07:01;;;;;;;8.18;1.17;;;22.10;99.90;;;;;;5023484;28;20116;-84
2023/08/13 11:09:29;;;;;;;1.50;1.40;;;22.10;99.90;;;;;;5021412;28;20053;-84
2023/08/13 11:11:56;;;;;;;3.35;1.50;;;22.10;99.90;;;;;;5019401;28;20041;-85
2023/08/13 11:14:22;;;;;;;4.32;1.40;;;22.20;99.90;;;;;;5020050;28;20029;-83
2023/08/13 11:16:47;;;;;;;2.00;1.05;;;22.10;99.90;;;;;;5025778;28;20036;-85
2023/08/13 11:19:13;;;;;;;2.83;1.45;;;22.20;99.90;;;;;;5024550;28;20026;-85
2023/08/13 11:21:39;;;;;;;4.97;1.63;;;22.20;99.90;;;;;;5024594;28;20481;-85
2023/08/13 11:24:08;;;;;;;2.13;1.20;;;22.30;99.90;;;;;;5024702;28;20037;-83
2023/08/13 11:26:37;;;;;;;3.80;1.40;;;22.40;99.90;;;;;;5020947;28;20108;-84
2023/08/13 11:29:02;;;;;;;3.75;1.17;;;22.50;99.90;;;;;;5023151;28;20021;-83
2023/08/13 11:31:28;;;;;;;2.38;1.23;;;22.50;99.90;;;;;;5022130;28;20040;-82
2023/08/13 11:33:54;;;;;;;1.33;0.98;;;22.50;99.90;;;;;;5020059;28;20037;-83
2023/08/13 11:36:20;;;;;;;4.40;1.48;;;22.50;99.90;;;;;;5020683;28;20018;-84
2023/08/13 11:38:45;;;;;;;1.45;1.13;;;22.50;99.90;;;;;;5034446;28;20041;-83
2023/08/13 11:41:12;;;;;;;2.22;1.13;;;22.40;99.90;;;;;;5014634;28;20046;-85
2023/08/13 11:43:37;;;;;;;2.33;1.30;;;22.30;99.90;;;;;;5039199;28;20029;-83
2023/08/13 11:46:04;;;;;;;2.95;1.67;;;22.30;99.90;;;;;;5050236;28;20013;-84
2023/08/13 11:48:31;;;;;;;5.43;1.50;;;22.30;99.90;;;;;;5040891;28;20489;-85
2023/08/13 11:51:10;;;;;;;4.40;1.17;;;22.20;99.90;;;;;;5026472;28;20025;-86
2023/08/13 11:53:43;;;;;;;2.47;1.23;;;22.10;99.90;;;;;;5026316;28;20028;-85
2023/08/13 11:56:11;;;;;;;3.70;1.35;;;22.10;99.90;;;;;;5026686;28;20049;-84
2023/08/13 11:58:37;;;;;;;2.65;1.17;;;22.10;99.90;;;;;;5034300;28;20021;-85
2023/08/13 12:01:06;;;;;;;1.83;0.88;;;22.10;99.90;;;;;;5024154;28;20037;-84
2023/08/13 12:03:36;;;;;;;3.20;1.48;;;22.10;99.90;;;;;;5028664;28;20511;-84
2023/08/13 12:06:01;;;;;;;2.22;1.27;;;22.20;99.90;;;;;;5025201;28;20037;-85
2023/08/13 12:08:28;;;;;;;2.28;1.08;;;22.20;99.90;;;;;;5021768;28;20026;-86
2023/08/13 12:10:54;;;;;;;3.13;1.50;;;22.20;99.90;;;;;;5030660;28;20033;-82
2023/08/13 12:13:19;;;;;;;2.15;1.23;;;22.40;99.90;;;;;;5024359;28;20032;-84
2023/08/13 12:15:45;;;;;;;3.58;1.13;;;22.50;99.90;;;;;;5032605;28;20048;-85
2023/08/13 12:18:10;;;;;;;4.05;1.45;;;22.70;99.90;;;;;;5024818;28;20029;-84
2023/08/13 12:20:36;;;;;;;3.97;1.10;;;22.70;99.90;;;;;;5032317;28;20056;-84
2023/08/13 12:23:02;;;;;;;2.58;1.13;;;22.80;99.90;;;;;;5023030;28;20026;-85
2023/08/13 12:25:29;;;;;;;1.50;1.00;;;22.80;99.90;;;;;;5023477;28;20101;-83
2023/08/13 12:27:54;;;;;;;1.58;0.70;;;22.70;99.90;;;;;;5030397;28;20500;-84
2023/08/13 12:30:20;;;;;;;2.92;1.30;;;22.80;99.90;;;;;;5022223;28;20044;-84
2023/08/13 12:32:46;;;;;;;5.72;1.10;;;22.80;99.90;;;;;;5030304;28;20425;-82
2023/08/13 12:35:15;;;;;;;2.10;1.20;;;22.90;99.90;;;;;;5020133;28;20041;-85
2023/08/13 12:37:40;;;;;;;2.83;1.00;;;22.90;99.90;;;;;;5025251;28;20018;-84
2023/08/13 12:40:10;;;;;;;1.67;0.90;;;23.00;99.90;;;;;;5026268;28;20034;-83
2023/08/13 12:42:36;;;;;;;1.98;0.93;;;23.10;99.90;;;;;;5028601;28;20803;-86